ITY715 ENGM-LFSB
Flight info
| Callsign | ITY715 |
|---|---|
| Flight time | N/A |
| Altitude | 38000 |
| Route | VIPPA P615 ARTOR/N0484F400 P615 ALS M852 ALASA/N0479F390 M852 EKERN/N0483F400 N125 ELSOB/N0481F390 N850 XAROL DCT SWALM/N0485F400 DCT OMOGI/N0486F410 T721 SUNEG T715 RIGVI |
| Aircraft | A359/H-SDE1E2E3FGHIJ2J3J4J5M1RWXY/LB1D1 |
Departure
| Time | 2026-05-06 07:12 |
|---|---|
| Airport | Oslo-Gardermoen International Airport (ENGM) |
Arrival
| Time | N/A |
|---|---|
| Airport | EuroAirport Basel–Mulhouse–Freiburg (LFSB) |
| Time | Latitude | Longitude | Altitude | Speed | Heading |
|---|---|---|---|---|---|
| 2026-05-06 06:29 | 60.19277 | 11.10780 | 695 ft | 0 kts | 342° |
| 2026-05-06 06:55 | 60.19265 | 11.10788 | 695 ft | 3 kts | 342° |
| 2026-05-06 06:55 | 60.19241 | 11.10803 | 695 ft | 3 kts | 343° |
| 2026-05-06 06:56 | 60.19218 | 11.10817 | 695 ft | 3 kts | 343° |
| 2026-05-06 06:56 | 60.19203 | 11.10821 | 695 ft | 3 kts | 40° |
| 2026-05-06 06:56 | 60.19198 | 11.10797 | 695 ft | 3 kts | 104° |
| 2026-05-06 06:56 | 60.19205 | 11.10750 | 695 ft | 3 kts | 107° |
| 2026-05-06 06:57 | 60.19209 | 11.10721 | 695 ft | 0 kts | 107° |
| 2026-05-06 07:00 | 60.19209 | 11.10722 | 695 ft | 0 kts | 107° |
| 2026-05-06 07:00 | 60.19207 | 11.10732 | 695 ft | 3 kts | 107° |
| 2026-05-06 07:00 | 60.19197 | 11.10797 | 695 ft | 7 kts | 107° |
| 2026-05-06 07:01 | 60.19180 | 11.10914 | 695 ft | 10 kts | 106° |
| 2026-05-06 07:01 | 60.19165 | 11.11040 | 695 ft | 9 kts | 86° |
| 2026-05-06 07:01 | 60.19210 | 11.11126 | 695 ft | 12 kts | 22° |
| 2026-05-06 07:01 | 60.19318 | 11.11195 | 695 ft | 18 kts | 16° |
| 2026-05-06 07:02 | 60.19437 | 11.11264 | 695 ft | 17 kts | 16° |
| 2026-05-06 07:02 | 60.19550 | 11.11330 | 695 ft | 16 kts | 16° |
| 2026-05-06 07:02 | 60.19657 | 11.11392 | 695 ft | 15 kts | 16° |
| 2026-05-06 07:02 | 60.19711 | 11.11423 | 695 ft | 14 kts | 16° |
| 2026-05-06 07:03 | 60.19784 | 11.11451 | 695 ft | 10 kts | 346° |
| 2026-05-06 07:03 | 60.19825 | 11.11348 | 695 ft | 12 kts | 291° |
| 2026-05-06 07:03 | 60.19860 | 11.11132 | 695 ft | 20 kts | 287° |
| 2026-05-06 07:03 | 60.19900 | 11.10869 | 695 ft | 19 kts | 287° |
| 2026-05-06 07:04 | 60.19938 | 11.10622 | 695 ft | 18 kts | 287° |
| 2026-05-06 07:04 | 60.19974 | 11.10384 | 695 ft | 17 kts | 287° |
| 2026-05-06 07:04 | 60.20008 | 11.10158 | 695 ft | 17 kts | 287° |
| 2026-05-06 07:04 | 60.20047 | 11.09902 | 695 ft | 19 kts | 287° |
| 2026-05-06 07:05 | 60.20086 | 11.09648 | 695 ft | 19 kts | 287° |
| 2026-05-06 07:05 | 60.20123 | 11.09406 | 695 ft | 18 kts | 286° |
| 2026-05-06 07:05 | 60.20158 | 11.09176 | 695 ft | 17 kts | 289° |
| 2026-05-06 07:05 | 60.20193 | 11.08964 | 695 ft | 16 kts | 287° |
| 2026-05-06 07:06 | 60.20205 | 11.08809 | 695 ft | 10 kts | 245° |
| 2026-05-06 07:06 | 60.20140 | 11.08731 | 695 ft | 16 kts | 198° |
| 2026-05-06 07:06 | 60.20011 | 11.08654 | 695 ft | 19 kts | 196° |
| 2026-05-06 07:06 | 60.19884 | 11.08581 | 695 ft | 18 kts | 196° |
| 2026-05-06 07:07 | 60.19764 | 11.08511 | 695 ft | 18 kts | 196° |
| 2026-05-06 07:07 | 60.19633 | 11.08434 | 695 ft | 23 kts | 196° |
| 2026-05-06 07:07 | 60.19488 | 11.08352 | 695 ft | 21 kts | 196° |
| 2026-05-06 07:07 | 60.19356 | 11.08274 | 695 ft | 19 kts | 196° |
| 2026-05-06 07:08 | 60.19230 | 11.08200 | 695 ft | 18 kts | 196° |
| 2026-05-06 07:08 | 60.19109 | 11.08130 | 695 ft | 18 kts | 195° |
| 2026-05-06 07:08 | 60.18992 | 11.08063 | 695 ft | 17 kts | 196° |
| 2026-05-06 07:08 | 60.18881 | 11.07998 | 695 ft | 16 kts | 196° |
| 2026-05-06 07:09 | 60.18777 | 11.07937 | 695 ft | 15 kts | 195° |
| 2026-05-06 07:09 | 60.18679 | 11.07882 | 695 ft | 14 kts | 196° |
| 2026-05-06 07:09 | 60.18609 | 11.07841 | 695 ft | 9 kts | 196° |
| 2026-05-06 07:09 | 60.18566 | 11.07787 | 695 ft | 7 kts | 243° |
| 2026-05-06 07:10 | 60.18562 | 11.07709 | 695 ft | 5 kts | 276° |
| 2026-05-06 07:10 | 60.18565 | 11.07672 | 695 ft | 0 kts | 282° |
| 2026-05-06 07:10 | 60.18575 | 11.07609 | 695 ft | 7 kts | 290° |
| 2026-05-06 07:11 | 60.18595 | 11.07520 | 695 ft | 7 kts | 298° |
| 2026-05-06 07:11 | 60.18630 | 11.07469 | 695 ft | 6 kts | 350° |
| 2026-05-06 07:11 | 60.18671 | 11.07479 | 695 ft | 6 kts | 15° |
| 2026-05-06 07:11 | 60.18684 | 11.07487 | 695 ft | 6 kts | 16° |
| 2026-05-06 07:12 | 60.18884 | 11.07599 | 695 ft | 68 kts | 15° |
| 2026-05-06 07:12 | 60.19668 | 11.08048 | 698 ft | 162 kts | 15° |
| 2026-05-06 07:12 | 60.20860 | 11.08714 | 1424 ft | 178 kts | 15° |
| 2026-05-06 07:12 | 60.22062 | 11.09401 | 2581 ft | 182 kts | 15° |
| 2026-05-06 07:13 | 60.23288 | 11.10094 | 3545 ft | 180 kts | 15° |
| 2026-05-06 07:13 | 60.24503 | 11.10803 | 4411 ft | 187 kts | 15° |
| 2026-05-06 07:13 | 60.25840 | 11.11445 | 4912 ft | 211 kts | 7° |
| 2026-05-06 07:13 | 60.27394 | 11.11551 | 5308 ft | 241 kts | 356° |
| 2026-05-06 07:14 | 60.29111 | 11.10946 | 5989 ft | 258 kts | 340° |
| 2026-05-06 07:14 | 60.30620 | 11.08939 | 6909 ft | 265 kts | 313° |
| 2026-05-06 07:14 | 60.31514 | 11.05711 | 7912 ft | 268 kts | 286° |
| 2026-05-06 07:14 | 60.31587 | 11.01971 | 8932 ft | 270 kts | 259° |
| 2026-05-06 07:15 | 60.30947 | 10.98404 | 9958 ft | 271 kts | 247° |
| 2026-05-06 07:15 | 60.30364 | 10.94754 | 10833 ft | 280 kts | 259° |
| 2026-05-06 07:15 | 60.30138 | 10.90766 | 11627 ft | 293 kts | 263° |
| 2026-05-06 07:15 | 60.29706 | 10.86634 | 12435 ft | 308 kts | 255° |
| 2026-05-06 07:16 | 60.28910 | 10.82486 | 13222 ft | 327 kts | 246° |
| 2026-05-06 07:16 | 60.27723 | 10.78446 | 14088 ft | 342 kts | 238° |
| 2026-05-06 07:16 | 60.26190 | 10.74660 | 15122 ft | 353 kts | 230° |
| 2026-05-06 07:16 | 60.24368 | 10.71285 | 16238 ft | 359 kts | 224° |
| 2026-05-06 07:17 | 60.22402 | 10.68137 | 17281 ft | 365 kts | 221° |
| 2026-05-06 07:17 | 60.20261 | 10.65445 | 18345 ft | 370 kts | 216° |
| 2026-05-06 07:17 | 60.17902 | 10.63181 | 19347 ft | 380 kts | 208° |
| 2026-05-06 07:17 | 60.15356 | 10.61530 | 20306 ft | 391 kts | 202° |
| 2026-05-06 07:18 | 60.12674 | 10.60362 | 21263 ft | 397 kts | 199° |
| 2026-05-06 07:18 | 60.09959 | 10.59295 | 22184 ft | 400 kts | 199° |
| 2026-05-06 07:18 | 60.07199 | 10.58252 | 22975 ft | 404 kts | 200° |
| 2026-05-06 07:18 | 60.04440 | 10.57041 | 23790 ft | 407 kts | 201° |
| 2026-05-06 07:19 | 60.01671 | 10.55734 | 24583 ft | 409 kts | 204° |
| 2026-05-06 07:19 | 59.98908 | 10.54281 | 25299 ft | 414 kts | 203° |
| 2026-05-06 07:19 | 59.96079 | 10.52963 | 26054 ft | 420 kts | 201° |
| 2026-05-06 07:19 | 59.93228 | 10.51808 | 26740 ft | 426 kts | 200° |
| 2026-05-06 07:20 | 59.90286 | 10.50747 | 27401 ft | 431 kts | 199° |
| 2026-05-06 07:20 | 59.87320 | 10.49702 | 28031 ft | 435 kts | 199° |
| 2026-05-06 07:20 | 59.84325 | 10.48665 | 28622 ft | 440 kts | 199° |
| 2026-05-06 07:20 | 59.81298 | 10.47624 | 29229 ft | 443 kts | 198° |
| 2026-05-06 07:21 | 59.78245 | 10.46579 | 29779 ft | 447 kts | 198° |
| 2026-05-06 07:21 | 59.75166 | 10.45528 | 30294 ft | 451 kts | 198° |
| 2026-05-06 07:21 | 59.72059 | 10.44469 | 30737 ft | 455 kts | 198° |
| 2026-05-06 07:21 | 59.68937 | 10.43406 | 31346 ft | 454 kts | 198° |
| 2026-05-06 07:22 | 59.65835 | 10.42351 | 32102 ft | 450 kts | 198° |
| 2026-05-06 07:22 | 59.62740 | 10.41300 | 32696 ft | 450 kts | 198° |
| 2026-05-06 07:22 | 59.59651 | 10.40253 | 33239 ft | 450 kts | 198° |
| 2026-05-06 07:22 | 59.56564 | 10.39206 | 33762 ft | 450 kts | 197° |
| 2026-05-06 07:23 | 59.53481 | 10.38166 | 34305 ft | 449 kts | 197° |
| 2026-05-06 07:23 | 59.50400 | 10.37128 | 34726 ft | 451 kts | 197° |
| 2026-05-06 07:23 | 59.47306 | 10.36076 | 35140 ft | 452 kts | 197° |
| 2026-05-06 07:23 | 59.44205 | 10.35015 | 35559 ft | 453 kts | 197° |
| 2026-05-06 07:24 | 59.41091 | 10.33963 | 35906 ft | 455 kts | 197° |
| 2026-05-06 07:24 | 59.37973 | 10.32918 | 36365 ft | 455 kts | 196° |
| 2026-05-06 07:24 | 59.34849 | 10.31876 | 36726 ft | 456 kts | 196° |
| 2026-05-06 07:24 | 59.31756 | 10.30847 | 37090 ft | 457 kts | 196° |
| 2026-05-06 07:25 | 59.28612 | 10.29803 | 37427 ft | 458 kts | 196° |
| 2026-05-06 07:25 | 59.25466 | 10.28759 | 37792 ft | 459 kts | 195° |
| 2026-05-06 07:25 | 59.22308 | 10.27713 | 37986 ft | 461 kts | 195° |
| 2026-05-06 07:26 | 59.15979 | 10.25681 | 37993 ft | 461 kts | 193° |
| 2026-05-06 07:26 | 59.09569 | 10.24732 | 37993 ft | 462 kts | 188° |
| 2026-05-06 07:27 | 59.03136 | 10.24088 | 37993 ft | 463 kts | 190° |
| 2026-05-06 07:27 | 58.96746 | 10.23227 | 37993 ft | 463 kts | 190° |
| 2026-05-06 07:28 | 58.90317 | 10.22370 | 37992 ft | 462 kts | 190° |
| 2026-05-06 07:28 | 58.80694 | 10.21095 | 37990 ft | 461 kts | 190° |
| 2026-05-06 07:29 | 58.74289 | 10.20250 | 37988 ft | 461 kts | 190° |
| 2026-05-06 07:29 | 58.67891 | 10.19409 | 37987 ft | 461 kts | 190° |
| 2026-05-06 07:30 | 58.61498 | 10.18554 | 37985 ft | 460 kts | 190° |
| 2026-05-06 07:30 | 58.55112 | 10.17712 | 37983 ft | 460 kts | 190° |
| 2026-05-06 07:31 | 58.48725 | 10.16882 | 37981 ft | 459 kts | 190° |
| 2026-05-06 07:31 | 58.42357 | 10.16057 | 37980 ft | 458 kts | 190° |
| 2026-05-06 07:32 | 58.35992 | 10.15235 | 37978 ft | 458 kts | 190° |
| 2026-05-06 07:32 | 58.29674 | 10.14422 | 37976 ft | 458 kts | 190° |
| 2026-05-06 07:33 | 58.23314 | 10.13610 | 37975 ft | 458 kts | 190° |
| 2026-05-06 07:33 | 58.16953 | 10.12802 | 37979 ft | 458 kts | 190° |
| 2026-05-06 07:34 | 58.10601 | 10.11998 | 37978 ft | 458 kts | 190° |
| 2026-05-06 07:34 | 58.04241 | 10.11195 | 37977 ft | 457 kts | 190° |
| 2026-05-06 07:35 | 57.97888 | 10.10393 | 37977 ft | 457 kts | 190° |
| 2026-05-06 07:35 | 57.91541 | 10.09583 | 37979 ft | 457 kts | 190° |
| 2026-05-06 07:36 | 57.85189 | 10.08782 | 37977 ft | 457 kts | 190° |
| 2026-05-06 07:36 | 57.78834 | 10.07986 | 37975 ft | 457 kts | 190° |
| 2026-05-06 07:37 | 57.72481 | 10.07194 | 37973 ft | 457 kts | 190° |
| 2026-05-06 07:37 | 57.66130 | 10.06405 | 37972 ft | 457 kts | 190° |
| 2026-05-06 07:38 | 57.59808 | 10.05623 | 37971 ft | 458 kts | 190° |
| 2026-05-06 07:38 | 57.53451 | 10.04839 | 37969 ft | 458 kts | 190° |
| 2026-05-06 07:39 | 57.47093 | 10.04058 | 37968 ft | 457 kts | 190° |
| 2026-05-06 07:39 | 57.40751 | 10.03276 | 37967 ft | 457 kts | 190° |
| 2026-05-06 07:40 | 57.34401 | 10.02497 | 37966 ft | 457 kts | 190° |
| 2026-05-06 07:40 | 57.28056 | 10.01727 | 37965 ft | 457 kts | 190° |
| 2026-05-06 07:41 | 57.21712 | 10.00961 | 37965 ft | 457 kts | 190° |
| 2026-05-06 07:41 | 57.15406 | 10.00202 | 37965 ft | 456 kts | 189° |
| 2026-05-06 07:42 | 57.09065 | 9.99466 | 37964 ft | 457 kts | 188° |
| 2026-05-06 07:42 | 57.02696 | 9.99370 | 37964 ft | 458 kts | 185° |
| 2026-05-06 07:43 | 56.96306 | 9.99523 | 37964 ft | 459 kts | 185° |
| 2026-05-06 07:43 | 56.89922 | 9.99554 | 37963 ft | 458 kts | 186° |
| 2026-05-06 07:44 | 56.83545 | 9.99550 | 37962 ft | 458 kts | 186° |
| 2026-05-06 07:44 | 56.77165 | 9.99540 | 37960 ft | 458 kts | 186° |
| 2026-05-06 07:45 | 56.71867 | 9.99531 | 37960 ft | 457 kts | 185° |
| 2026-05-06 07:45 | 56.64469 | 9.99518 | 37958 ft | 457 kts | 185° |
| 2026-05-06 07:46 | 56.59139 | 9.99509 | 37957 ft | 457 kts | 185° |
| 2026-05-06 07:46 | 56.52815 | 9.99497 | 37957 ft | 457 kts | 185° |
| 2026-05-06 07:47 | 56.46454 | 9.99482 | 37956 ft | 456 kts | 185° |
| 2026-05-06 07:47 | 56.40095 | 9.99468 | 37956 ft | 456 kts | 185° |
| 2026-05-06 07:48 | 56.33749 | 9.99453 | 37956 ft | 456 kts | 185° |
| 2026-05-06 07:48 | 56.27401 | 9.99439 | 37955 ft | 456 kts | 185° |
| 2026-05-06 07:49 | 56.21057 | 9.99424 | 37957 ft | 456 kts | 185° |
| 2026-05-06 07:49 | 56.14711 | 9.99410 | 37953 ft | 456 kts | 185° |
| 2026-05-06 07:50 | 56.08402 | 9.99399 | 37953 ft | 456 kts | 185° |
| 2026-05-06 07:50 | 56.02058 | 9.99400 | 37952 ft | 456 kts | 185° |
| 2026-05-06 07:51 | 55.95999 | 9.99400 | 37947 ft | 456 kts | 185° |
| 2026-05-06 07:51 | 55.89653 | 9.99400 | 37944 ft | 456 kts | 185° |
| 2026-05-06 07:52 | 55.83293 | 9.99400 | 37942 ft | 456 kts | 185° |
| 2026-05-06 07:52 | 55.76991 | 9.99400 | 37940 ft | 456 kts | 185° |
| 2026-05-06 07:53 | 55.70640 | 9.99400 | 37940 ft | 456 kts | 185° |
| 2026-05-06 07:53 | 55.64290 | 9.99400 | 37943 ft | 455 kts | 185° |
| 2026-05-06 07:54 | 55.57950 | 9.99400 | 37941 ft | 455 kts | 185° |
| 2026-05-06 07:54 | 55.51612 | 9.99400 | 37939 ft | 455 kts | 185° |
| 2026-05-06 07:55 | 55.45256 | 9.99400 | 38056 ft | 459 kts | 185° |
| 2026-05-06 07:55 | 55.42062 | 9.99400 | 38416 ft | 459 kts | 185° |
| 2026-05-06 07:55 | 55.38868 | 9.99400 | 38781 ft | 459 kts | 185° |
| 2026-05-06 07:56 | 55.35678 | 9.99398 | 39147 ft | 458 kts | 185° |
| 2026-05-06 07:56 | 55.32525 | 9.99391 | 39428 ft | 459 kts | 185° |
| 2026-05-06 07:56 | 55.29323 | 9.99383 | 39696 ft | 461 kts | 184° |
| 2026-05-06 07:56 | 55.26110 | 9.99376 | 39913 ft | 462 kts | 184° |
| 2026-05-06 07:57 | 55.19682 | 9.99362 | 39934 ft | 461 kts | 184° |
| 2026-05-06 07:57 | 55.13271 | 9.99348 | 39933 ft | 460 kts | 184° |
| 2026-05-06 07:58 | 55.06875 | 9.99335 | 39933 ft | 460 kts | 184° |
| 2026-05-06 07:58 | 55.00474 | 9.99321 | 39934 ft | 460 kts | 184° |
| 2026-05-06 07:59 | 54.94080 | 9.99307 | 39932 ft | 459 kts | 184° |
| 2026-05-06 07:59 | 54.87735 | 9.98598 | 39922 ft | 455 kts | 193° |
| 2026-05-06 08:00 | 54.81554 | 9.96434 | 39682 ft | 451 kts | 195° |
| 2026-05-06 08:00 | 54.78438 | 9.95351 | 39400 ft | 452 kts | 194° |
| 2026-05-06 08:00 | 54.75344 | 9.94357 | 39144 ft | 451 kts | 194° |
| 2026-05-06 08:01 | 54.72311 | 9.93382 | 38976 ft | 449 kts | 194° |
| 2026-05-06 08:01 | 54.69236 | 9.92381 | 38927 ft | 449 kts | 194° |
| 2026-05-06 08:01 | 54.63086 | 9.90385 | 38916 ft | 449 kts | 193° |
| 2026-05-06 08:02 | 54.56928 | 9.88417 | 38911 ft | 450 kts | 193° |
| 2026-05-06 08:02 | 54.50770 | 9.86456 | 39289 ft | 451 kts | 193° |
| 2026-05-06 08:03 | 54.47685 | 9.85457 | 39689 ft | 449 kts | 194° |
| 2026-05-06 08:03 | 54.44610 | 9.84459 | 39887 ft | 451 kts | 193° |
| 2026-05-06 08:03 | 54.38424 | 9.82474 | 39898 ft | 453 kts | 193° |
| 2026-05-06 08:04 | 54.32256 | 9.80506 | 39888 ft | 454 kts | 193° |
| 2026-05-06 08:04 | 54.26056 | 9.78530 | 39884 ft | 453 kts | 193° |
| 2026-05-06 08:05 | 54.19871 | 9.76484 | 39882 ft | 452 kts | 194° |
| 2026-05-06 08:05 | 54.13704 | 9.74341 | 39882 ft | 452 kts | 194° |
| 2026-05-06 08:06 | 54.07531 | 9.72226 | 39878 ft | 452 kts | 194° |
| 2026-05-06 08:06 | 54.01360 | 9.70121 | 39875 ft | 452 kts | 194° |
| 2026-05-06 08:07 | 53.95190 | 9.68004 | 39868 ft | 452 kts | 194° |
| 2026-05-06 08:07 | 53.89142 | 9.65922 | 39867 ft | 452 kts | 194° |
| 2026-05-06 08:08 | 53.82979 | 9.63837 | 39877 ft | 452 kts | 194° |
| 2026-05-06 08:08 | 53.76807 | 9.61766 | 39861 ft | 452 kts | 194° |
| 2026-05-06 08:09 | 53.70633 | 9.59687 | 39607 ft | 453 kts | 194° |
| 2026-05-06 08:09 | 53.67530 | 9.58654 | 39153 ft | 456 kts | 193° |
| 2026-05-06 08:09 | 53.64410 | 9.57740 | 39000 ft | 453 kts | 190° |
| 2026-05-06 08:10 | 53.58127 | 9.57081 | 38881 ft | 452 kts | 186° |
| 2026-05-06 08:10 | 53.52207 | 9.56470 | 38845 ft | 451 kts | 187° |
| 2026-05-06 08:11 | 53.45986 | 9.55217 | 38843 ft | 449 kts | 191° |
| 2026-05-06 08:11 | 53.39786 | 9.53757 | 38833 ft | 450 kts | 190° |
| 2026-05-06 08:12 | 53.33571 | 9.52383 | 38832 ft | 451 kts | 190° |
| 2026-05-06 08:12 | 53.27351 | 9.51011 | 38827 ft | 450 kts | 190° |
| 2026-05-06 08:13 | 53.21126 | 9.49660 | 38827 ft | 451 kts | 189° |
| 2026-05-06 08:13 | 53.14890 | 9.48318 | 38820 ft | 452 kts | 189° |
| 2026-05-06 08:14 | 53.08662 | 9.46987 | 38823 ft | 452 kts | 189° |
| 2026-05-06 08:14 | 53.02420 | 9.45644 | 38818 ft | 452 kts | 189° |
| 2026-05-06 08:15 | 52.96214 | 9.44325 | 38812 ft | 452 kts | 189° |
| 2026-05-06 08:15 | 52.89973 | 9.42982 | 38804 ft | 453 kts | 189° |
| 2026-05-06 08:16 | 52.83722 | 9.41648 | 38795 ft | 453 kts | 189° |
| 2026-05-06 08:16 | 52.77459 | 9.40324 | 38796 ft | 453 kts | 189° |
| 2026-05-06 08:17 | 52.71221 | 9.39018 | 38793 ft | 452 kts | 189° |
| 2026-05-06 08:17 | 52.64970 | 9.37703 | 38791 ft | 453 kts | 189° |
| 2026-05-06 08:18 | 52.58720 | 9.36268 | 38788 ft | 453 kts | 191° |
| 2026-05-06 08:18 | 52.52503 | 9.34573 | 38790 ft | 452 kts | 191° |
| 2026-05-06 08:19 | 52.46278 | 9.32943 | 38788 ft | 452 kts | 191° |
| 2026-05-06 08:19 | 52.40054 | 9.31333 | 38782 ft | 453 kts | 191° |
| 2026-05-06 08:20 | 52.33864 | 9.29730 | 38791 ft | 453 kts | 191° |
| 2026-05-06 08:20 | 52.27629 | 9.28100 | 38789 ft | 453 kts | 191° |
| 2026-05-06 08:21 | 52.21388 | 9.26512 | 38798 ft | 453 kts | 189° |
| 2026-05-06 08:21 | 52.15109 | 9.25449 | 38784 ft | 454 kts | 187° |
| 2026-05-06 08:22 | 52.08834 | 9.24345 | 38782 ft | 453 kts | 188° |
| 2026-05-06 08:22 | 52.02564 | 9.23119 | 38783 ft | 454 kts | 190° |
| 2026-05-06 08:23 | 51.96338 | 9.21345 | 38781 ft | 454 kts | 191° |
| 2026-05-06 08:23 | 51.90105 | 9.19695 | 38763 ft | 454 kts | 190° |
| 2026-05-06 08:24 | 51.83889 | 9.18173 | 38763 ft | 455 kts | 188° |
| 2026-05-06 08:24 | 51.77602 | 9.16880 | 38756 ft | 455 kts | 188° |
| 2026-05-06 08:25 | 51.71336 | 9.15547 | 38752 ft | 454 kts | 189° |
| 2026-05-06 08:25 | 51.65073 | 9.14209 | 38751 ft | 454 kts | 189° |
| 2026-05-06 08:26 | 51.58796 | 9.12859 | 38752 ft | 455 kts | 188° |
| 2026-05-06 08:26 | 51.52517 | 9.11510 | 38738 ft | 456 kts | 188° |
| 2026-05-06 08:27 | 51.46273 | 9.09835 | 38743 ft | 455 kts | 193° |
| 2026-05-06 08:27 | 51.40111 | 9.07531 | 38740 ft | 455 kts | 193° |
| 2026-05-06 08:28 | 51.33901 | 9.05460 | 38735 ft | 455 kts | 190° |
| 2026-05-06 08:28 | 51.27582 | 9.05289 | 38728 ft | 457 kts | 174° |
| 2026-05-06 08:29 | 51.21354 | 9.07063 | 38727 ft | 458 kts | 171° |
| 2026-05-06 08:29 | 51.15094 | 9.08982 | 38735 ft | 458 kts | 171° |
| 2026-05-06 08:30 | 51.08799 | 9.10710 | 38728 ft | 459 kts | 172° |
| 2026-05-06 08:30 | 51.03522 | 9.12113 | 38732 ft | 459 kts | 172° |
| 2026-05-06 08:31 | 50.97272 | 9.13816 | 38731 ft | 458 kts | 172° |
| 2026-05-06 08:31 | 50.90994 | 9.15492 | 38735 ft | 458 kts | 172° |
| 2026-05-06 08:32 | 50.84708 | 9.17162 | 38734 ft | 458 kts | 172° |
| 2026-05-06 08:32 | 50.78421 | 9.18825 | 38735 ft | 458 kts | 172° |
| 2026-05-06 08:33 | 50.75282 | 9.19653 | 38886 ft | 457 kts | 172° |
| 2026-05-06 08:33 | 50.72131 | 9.20224 | 39183 ft | 454 kts | 180° |
| 2026-05-06 08:33 | 50.68983 | 9.20110 | 39483 ft | 452 kts | 186° |
| 2026-05-06 08:33 | 50.65847 | 9.19620 | 39701 ft | 453 kts | 188° |
| 2026-05-06 08:34 | 50.56416 | 9.17495 | 39741 ft | 459 kts | 189° |
| 2026-05-06 08:35 | 50.50076 | 9.16134 | 39742 ft | 460 kts | 189° |
| 2026-05-06 08:35 | 50.43743 | 9.14815 | 39745 ft | 459 kts | 189° |
| 2026-05-06 08:36 | 50.37410 | 9.13506 | 39747 ft | 458 kts | 189° |
| 2026-05-06 08:36 | 50.31082 | 9.12188 | 39749 ft | 458 kts | 189° |
| 2026-05-06 08:37 | 50.24753 | 9.10883 | 39751 ft | 459 kts | 189° |
| 2026-05-06 08:37 | 50.18420 | 9.09585 | 39753 ft | 459 kts | 189° |
| 2026-05-06 08:38 | 50.12120 | 9.08298 | 39754 ft | 459 kts | 189° |
| 2026-05-06 08:38 | 50.05780 | 9.07006 | 39755 ft | 459 kts | 188° |
| 2026-05-06 08:39 | 49.99449 | 9.05720 | 39763 ft | 459 kts | 188° |
| 2026-05-06 08:39 | 49.93121 | 9.04428 | 39825 ft | 458 kts | 189° |
| 2026-05-06 08:39 | 49.89970 | 9.03789 | 40148 ft | 456 kts | 189° |
| 2026-05-06 08:40 | 49.86824 | 9.03155 | 40472 ft | 454 kts | 189° |
| 2026-05-06 08:40 | 49.83693 | 9.02525 | 40728 ft | 454 kts | 189° |
| 2026-05-06 08:40 | 49.80544 | 9.01893 | 40760 ft | 457 kts | 189° |
| 2026-05-06 08:41 | 49.74199 | 9.00621 | 40771 ft | 461 kts | 189° |
| 2026-05-06 08:41 | 49.67824 | 8.99345 | 40774 ft | 462 kts | 189° |
| 2026-05-06 08:42 | 49.61475 | 8.97928 | 40776 ft | 460 kts | 191° |
| 2026-05-06 08:42 | 49.55187 | 8.96101 | 40779 ft | 458 kts | 192° |
| 2026-05-06 08:43 | 49.48923 | 8.94316 | 40780 ft | 458 kts | 192° |
| 2026-05-06 08:43 | 49.42649 | 8.92582 | 40787 ft | 458 kts | 191° |
| 2026-05-06 08:44 | 49.36365 | 8.90868 | 40787 ft | 459 kts | 191° |
| 2026-05-06 08:44 | 49.30080 | 8.89160 | 40787 ft | 459 kts | 191° |
| 2026-05-06 08:45 | 49.23792 | 8.87455 | 40786 ft | 459 kts | 191° |
| 2026-05-06 08:45 | 49.20694 | 8.86296 | 40420 ft | 460 kts | 200° |
| 2026-05-06 08:45 | 49.17793 | 8.84366 | 39569 ft | 461 kts | 212° |
| 2026-05-06 08:45 | 49.15269 | 8.81382 | 38825 ft | 460 kts | 223° |
| 2026-05-06 08:46 | 49.13051 | 8.77845 | 38047 ft | 460 kts | 226° |
| 2026-05-06 08:46 | 49.10831 | 8.74327 | 37251 ft | 460 kts | 224° |
| 2026-05-06 08:46 | 49.08544 | 8.70911 | 36444 ft | 460 kts | 222° |
| 2026-05-06 08:46 | 49.06176 | 8.67633 | 35635 ft | 459 kts | 220° |
| 2026-05-06 08:47 | 49.03773 | 8.64433 | 34880 ft | 458 kts | 220° |
| 2026-05-06 08:47 | 49.01390 | 8.61225 | 34116 ft | 456 kts | 220° |
| 2026-05-06 08:47 | 48.99015 | 8.58035 | 33346 ft | 455 kts | 219° |
| 2026-05-06 08:47 | 48.96558 | 8.54996 | 32557 ft | 454 kts | 217° |
| 2026-05-06 08:48 | 48.94028 | 8.52126 | 31755 ft | 453 kts | 215° |
| 2026-05-06 08:48 | 48.91470 | 8.49345 | 30947 ft | 451 kts | 215° |
| 2026-05-06 08:48 | 48.88934 | 8.46549 | 30224 ft | 448 kts | 216° |
| 2026-05-06 08:48 | 48.86440 | 8.43739 | 29569 ft | 444 kts | 217° |
| 2026-05-06 08:49 | 48.84007 | 8.40981 | 28895 ft | 440 kts | 216° |
| 2026-05-06 08:49 | 48.81566 | 8.38218 | 28225 ft | 435 kts | 216° |
| 2026-05-06 08:49 | 48.79151 | 8.35486 | 27566 ft | 431 kts | 216° |
| 2026-05-06 08:49 | 48.76754 | 8.32789 | 26921 ft | 427 kts | 216° |
| 2026-05-06 08:50 | 48.74368 | 8.30146 | 26284 ft | 422 kts | 216° |
| 2026-05-06 08:50 | 48.72917 | 8.28542 | 25897 ft | 419 kts | 216° |
| 2026-05-06 08:50 | 48.72907 | 8.28532 | 25895 ft | 419 kts | 216° |
| 2026-05-06 08:50 | 48.72040 | 8.27573 | 25665 ft | 418 kts | 216° |
| 2026-05-06 08:51 | 48.69737 | 8.25028 | 25051 ft | 414 kts | 216° |
| 2026-05-06 08:51 | 48.67530 | 8.22588 | 24460 ft | 410 kts | 216° |
| 2026-05-06 08:51 | 48.65321 | 8.20148 | 23871 ft | 406 kts | 216° |